createdAt,value
2023-05-22T00:00:08.587Z,101678.44
2023-05-22T00:02:39.095Z,101674.09
2023-05-22T00:05:06.928Z,101669.78
2023-05-22T00:07:33.562Z,101665.44
2023-05-22T00:10:00.153Z,101668.03
2023-05-22T00:12:26.758Z,101681.88
2023-05-22T00:14:53.648Z,101685.38
2023-05-22T00:17:20.482Z,101677.56
2023-05-22T00:19:47.664Z,101681.91
2023-05-22T00:22:14.294Z,101674.13
2023-05-22T00:24:40.883Z,101674.97
2023-05-22T00:27:07.513Z,101668.91
2023-05-22T00:29:34.620Z,101660.25
2023-05-22T00:32:01.245Z,101661.09
2023-05-22T00:34:27.838Z,101655.03
2023-05-22T00:36:54.398Z,101669.75
2023-05-22T00:39:21.801Z,101663.69
2023-05-22T00:41:48.480Z,101661.97
2023-05-22T00:44:15.381Z,101658.50
2023-05-22T00:46:43.239Z,101656.78
2023-05-22T00:49:09.888Z,101655.03
2023-05-22T00:51:36.491Z,101656.78
2023-05-22T00:54:04.145Z,101657.63
2023-05-22T00:56:30.969Z,101661.13
2023-05-22T00:58:59.071Z,101650.69
2023-05-22T01:01:26.559Z,101642.91
2023-05-22T01:03:53.888Z,101630.81
2023-05-22T01:06:23.341Z,101638.56
2023-05-22T01:08:49.981Z,101643.78
2023-05-22T01:11:25.363Z,101637.72
2023-05-22T01:14:04.190Z,101644.66
2023-05-22T01:17:14.318Z,101645.53
2023-05-22T01:20:14.432Z,101635.97
2023-05-22T01:22:50.088Z,101631.66
2023-05-22T01:25:45.347Z,101625.59
2023-05-22T01:28:42.085Z,101615.19
2023-05-22T01:31:12.517Z,101601.34
2023-05-22T01:33:47.489Z,101587.47
2023-05-22T01:36:23.763Z,101580.53
2023-05-22T01:38:52.126Z,101566.69
2023-05-22T01:41:21.356Z,101543.31
2023-05-22T01:43:49.572Z,101561.47
2023-05-22T01:46:17.632Z,101558.00
2023-05-22T01:48:44.416Z,101553.69
2023-05-22T01:51:23.957Z,101550.22
2023-05-22T01:54:06.179Z,101579.66
2023-05-22T01:56:44.022Z,101570.13
2023-05-22T01:59:19.854Z,101564.06
2023-05-22T02:01:50.427Z,101563.22
2023-05-22T02:04:19.861Z,101545.91
2023-05-22T02:06:47.341Z,101542.41
2023-05-22T02:09:17.091Z,101561.47
2023-05-22T02:11:44.193Z,101544.16
2023-05-22T02:14:12.280Z,101563.22
2023-05-22T02:16:39.443Z,101537.22
2023-05-22T02:19:06.449Z,101524.22
2023-05-22T02:21:35.258Z,101548.47
2023-05-22T02:24:02.920Z,101543.25
2023-05-22T02:26:29.566Z,101551.03
2023-05-22T02:28:56.286Z,101513.78
2023-05-22T02:31:23.061Z,101522.47
2023-05-22T02:33:50.132Z,101531.97
2023-05-22T02:36:16.834Z,101538.88
2023-05-22T02:38:43.527Z,101527.63
2023-05-22T02:41:10.133Z,101532.78
2023-05-22T02:43:36.768Z,101531.06
2023-05-22T02:46:03.561Z,101505.06
2023-05-22T02:48:30.296Z,101504.22
2023-05-22T02:50:56.941Z,101502.47
2023-05-22T02:53:23.638Z,101526.75
2023-05-22T02:55:50.433Z,101502.47
2023-05-22T02:58:17.890Z,101507.66
2023-05-22T03:00:45.314Z,101511.16
2023-05-22T03:03:12.041Z,101525.03
2023-05-22T03:05:40.161Z,101499.88
2023-05-22T03:08:06.855Z,101487.75
2023-05-22T03:10:33.506Z,101528.50
2023-05-22T03:13:00.232Z,101492.13
2023-05-22T03:15:26.923Z,101508.56
2023-05-22T03:17:53.584Z,101516.34
2023-05-22T03:20:20.286Z,101525.84
2023-05-22T03:22:46.991Z,101518.91
2023-05-22T03:25:13.679Z,101509.38
2023-05-22T03:27:43.459Z,101507.59
2023-05-22T03:30:10.509Z,101536.16
2023-05-22T03:32:37.942Z,101533.53
2023-05-22T03:35:05.538Z,101533.50
2023-05-22T03:37:32.258Z,101561.22
2023-05-22T03:39:58.965Z,101565.59
2023-05-22T03:42:25.646Z,101528.31
2023-05-22T03:44:52.318Z,101529.16
2023-05-22T03:47:19.189Z,101545.59
2023-05-22T03:49:45.897Z,101530.91
2023-05-22T03:52:12.597Z,101525.69
2023-05-22T03:54:39.234Z,101572.50
2023-05-22T03:57:06.109Z,101543.09
2023-05-22T03:59:32.799Z,101548.34
2023-05-22T04:02:01.335Z,101534.41
2023-05-22T04:04:28.709Z,101525.72
2023-05-22T04:06:58.202Z,101554.34
2023-05-22T04:09:27.844Z,101571.69
2023-05-22T04:11:54.450Z,101541.38
2023-05-22T04:14:21.141Z,101573.44
2023-05-22T04:16:50.371Z,101567.38
2023-05-22T04:19:18.061Z,101551.78
2023-05-22T04:21:45.287Z,101565.66
2023-05-22T04:24:11.996Z,101576.94
2023-05-22T04:26:41.751Z,101581.25
2023-05-22T04:29:10.644Z,101566.56
2023-05-22T04:31:37.545Z,101553.53
2023-05-22T04:34:05.376Z,101592.53
2023-05-22T04:36:32.062Z,101578.66
2023-05-22T04:39:00.470Z,101595.16
2023-05-22T04:41:27.181Z,101544.94
2023-05-22T04:43:54.170Z,101576.13
2023-05-22T04:46:21.312Z,101567.47
2023-05-22T04:48:48.121Z,101582.22
2023-05-22T04:51:14.855Z,101570.09
2023-05-22T04:53:41.488Z,101566.69
2023-05-22T04:56:08.162Z,101599.56
2023-05-22T04:58:34.893Z,101598.75
2023-05-22T05:01:01.624Z,101562.34
2023-05-22T05:03:28.898Z,101581.41
2023-05-22T05:05:56.768Z,101590.06
2023-05-22T05:08:23.486Z,101565.78
2023-05-22T05:10:50.190Z,101583.91
2023-05-22T05:13:16.885Z,101594.22
2023-05-22T05:15:43.569Z,101562.94
2023-05-22T05:18:10.284Z,101573.22
2023-05-22T05:20:37.170Z,101558.28
2023-05-22T05:23:03.881Z,101554.63
2023-05-22T05:25:30.722Z,101559.69
2023-05-22T05:27:57.766Z,101560.50
2023-05-22T05:30:24.390Z,101543.06
2023-05-22T05:32:51.196Z,101553.38
2023-05-22T05:35:18.005Z,101563.72
2023-05-22T05:37:44.709Z,101548.25
2023-05-22T05:40:11.945Z,101567.31
2023-05-22T05:42:38.589Z,101576.81
2023-05-22T05:45:05.574Z,101566.00
2023-05-22T05:47:32.264Z,101554.44
2023-05-22T05:49:58.948Z,101549.03
2023-05-22T05:52:27.196Z,101561.50
2023-05-22T05:54:54.008Z,101562.47
2023-05-22T05:57:20.950Z,101563.59
2023-05-22T05:59:47.914Z,101554.59
2023-05-22T06:02:14.577Z,101557.41
2023-05-22T06:04:42.154Z,101553.78
2023-05-22T06:07:08.752Z,101548.97
2023-05-22T06:09:36.347Z,101543.34
2023-05-22T06:12:02.991Z,101551.06
2023-05-22T06:14:29.640Z,101552.09
2023-05-22T06:16:56.470Z,101554.28
2023-05-22T06:19:23.351Z,101546.06
2023-05-22T06:21:51.484Z,101545.53
2023-05-22T06:24:19.528Z,101540.19
2023-05-22T06:26:46.298Z,101552.88
2023-05-22T06:29:12.919Z,101541.06
2023-05-22T06:31:39.798Z,101543.13
2023-05-22T06:34:06.709Z,101546.19
2023-05-22T06:36:34.826Z,101552.19
2023-05-22T06:39:02.746Z,101549.78
2023-05-22T06:41:29.320Z,101551.09
2023-05-22T06:43:56.046Z,101553.72
2023-05-22T06:46:25.765Z,101551.13
2023-05-22T06:48:52.874Z,101545.84
2023-05-22T06:51:19.543Z,101535.94
2023-05-22T06:53:46.287Z,101559.94
2023-05-22T06:56:12.913Z,101558.34
2023-05-22T06:58:39.631Z,101552.47
2023-05-22T07:01:06.244Z,101562.97
2023-05-22T07:03:32.930Z,101558.28
2023-05-22T07:05:59.769Z,101554.41
2023-05-22T07:08:28.372Z,101572.72
2023-05-22T07:10:56.540Z,101555.97
2023-05-22T07:13:24.825Z,101572.00
2023-05-22T07:15:51.422Z,101544.78
2023-05-22T07:18:18.057Z,101556.59
2023-05-22T07:20:45.602Z,101572.91
2023-05-22T07:23:12.257Z,101571.16
2023-05-22T07:25:38.866Z,101568.81
2023-05-22T07:28:09.132Z,101578.47
2023-05-22T07:30:37.740Z,101575.28
2023-05-22T07:33:05.680Z,101586.50
2023-05-22T07:35:32.531Z,101563.88
2023-05-22T07:37:59.176Z,101553.31
2023-05-22T07:40:26.719Z,101553.59
2023-05-22T07:42:53.725Z,101537.19
2023-05-22T07:45:20.442Z,101563.84
2023-05-22T07:47:47.118Z,101556.94
2023-05-22T07:50:13.790Z,101576.06
2023-05-22T07:52:43.948Z,101575.59
2023-05-22T07:55:10.605Z,101581.09
2023-05-22T07:57:38.743Z,101571.44
2023-05-22T08:00:14.806Z,101571.53
2023-05-22T08:02:41.798Z,101589.28
2023-05-22T08:05:09.584Z,101586.00
2023-05-22T08:07:36.870Z,101587.81
2023-05-22T08:10:07.731Z,101563.28
2023-05-22T08:12:34.390Z,101577.25
2023-05-22T08:15:01.039Z,101568.19
2023-05-22T08:17:27.669Z,101576.94
2023-05-22T08:19:54.475Z,101571.91
2023-05-22T08:22:21.266Z,101568.53
2023-05-22T08:24:47.862Z,101587.78
2023-05-22T08:27:14.524Z,101588.69
2023-05-22T08:29:41.184Z,101566.16
2023-05-22T08:32:08.384Z,101566.75
2023-05-22T08:34:35.608Z,101571.34
2023-05-22T08:37:03.695Z,101572.75
2023-05-22T08:39:32.307Z,101586.63
2023-05-22T08:41:59.427Z,101553.41
2023-05-22T08:44:26.304Z,101563.91
2023-05-22T08:46:56.687Z,101542.59
2023-05-22T08:49:24.476Z,101577.19
2023-05-22T08:51:56.206Z,101574.47
2023-05-22T08:54:26.455Z,101583.41
2023-05-22T08:56:57.205Z,101554.94
2023-05-22T08:59:24.976Z,101548.72
2023-05-22T09:01:52.952Z,101565.19
2023-05-22T09:04:23.723Z,101560.22
2023-05-22T09:06:50.866Z,101540.81
2023-05-22T09:09:17.981Z,101528.41
2023-05-22T09:11:44.731Z,101545.47
2023-05-22T09:14:14.386Z,101549.28
2023-05-22T09:16:48.835Z,101548.81
2023-05-22T09:19:16.264Z,101567.03
2023-05-22T09:21:44.590Z,101537.13
2023-05-22T09:24:11.969Z,101515.22
2023-05-22T09:26:53.859Z,101520.47
2023-05-22T09:29:20.839Z,101538.69
2023-05-22T09:31:47.951Z,101532.44
2023-05-22T09:34:14.894Z,101551.47
2023-05-22T09:36:42.610Z,101547.34
2023-05-22T09:39:09.687Z,101521.06
2023-05-22T09:41:40.064Z,101561.63
2023-05-22T09:44:15.739Z,101526.03
2023-05-22T09:46:45.348Z,101552.53
2023-05-22T09:49:16.724Z,101542.16
2023-05-22T09:51:49.644Z,101521.97
2023-05-22T09:54:17.747Z,101540.53
2023-05-22T09:56:50.485Z,101523.22
2023-05-22T09:59:22.575Z,101535.56
2023-05-22T10:01:50.504Z,101545.34
2023-05-22T10:04:19.064Z,101520.13
2023-05-22T10:06:51.199Z,101521.44
2023-05-22T10:09:26.354Z,101529.50
2023-05-22T10:11:57.095Z,101539.66
2023-05-22T10:14:57.996Z,101526.34
2023-05-22T10:20:40.151Z,101540.75
2023-05-22T10:23:12.229Z,101527.53
2023-05-22T10:25:39.200Z,101542.50
2023-05-22T10:28:07.310Z,101556.75
2023-05-22T10:30:40.246Z,101548.84
2023-05-22T10:33:45.158Z,101548.44
2023-05-22T10:36:24.296Z,101542.03
2023-05-22T10:39:29.123Z,101526.03
2023-05-22T10:41:58.393Z,101523.69
2023-05-22T10:44:27.346Z,101531.44
2023-05-22T10:46:56.220Z,101516.28
2023-05-22T10:49:29.169Z,101521.94
2023-05-22T10:51:59.618Z,101502.78
2023-05-22T10:54:43.733Z,101494.31
2023-05-22T10:57:17.994Z,101496.53
2023-05-22T10:59:47.819Z,101505.38
2023-05-22T11:02:38.988Z,101500.44
2023-05-22T11:05:31.656Z,101513.88
2023-05-22T11:08:26.395Z,101497.31
2023-05-22T11:10:59.263Z,101516.34
2023-05-22T11:13:29.093Z,101493.63
2023-05-22T11:15:57.847Z,101491.16
2023-05-22T11:18:28.491Z,101475.50
2023-05-22T11:20:55.991Z,101494.75
2023-05-22T11:23:26.942Z,101505.75
2023-05-22T11:25:55.465Z,101481.03
2023-05-22T11:28:32.825Z,101501.31
2023-05-22T11:31:00.411Z,101471.22
2023-05-22T11:33:36.348Z,101477.41
2023-05-22T11:36:06.508Z,101472.72
2023-05-22T11:38:33.718Z,101496.28
2023-05-22T11:41:00.420Z,101480.34
2023-05-22T11:43:38.093Z,101484.63
2023-05-22T11:46:09.376Z,101509.00
2023-05-22T11:48:36.657Z,101486.78
2023-05-22T11:51:18.695Z,101489.84
2023-05-22T11:53:50.692Z,101508.00
2023-05-22T11:56:22.390Z,101517.81
2023-05-22T11:59:01.517Z,101512.00
2023-05-22T12:01:30.966Z,101510.09
2023-05-22T12:04:04.728Z,101503.44
2023-05-22T12:06:39.260Z,101541.03
2023-05-22T12:09:07.309Z,101523.66
2023-05-22T12:11:37.611Z,101540.81
2023-05-22T12:14:04.862Z,101543.50
2023-05-22T12:16:44.756Z,101552.03
2023-05-22T12:19:17.907Z,101527.72
2023-05-22T12:21:49.302Z,101533.69
2023-05-22T12:24:24.618Z,101547.09
2023-05-22T12:26:54.226Z,101529.22
2023-05-22T12:32:14.173Z,101530.22
2023-05-22T12:34:48.190Z,101556.94
2023-05-22T12:37:22.969Z,101546.25
2023-05-22T12:40:12.633Z,101535.19
2023-05-22T12:42:56.748Z,101559.13
2023-05-22T12:45:23.638Z,101554.63
2023-05-22T12:47:50.558Z,101559.44
2023-05-22T12:50:17.298Z,101572.59
2023-05-22T12:52:43.866Z,101579.38
2023-05-22T12:55:10.775Z,101559.28
2023-05-22T12:57:37.404Z,101588.75
2023-05-22T13:00:05.992Z,101576.78
2023-05-22T13:02:32.748Z,101571.78
2023-05-22T13:04:59.435Z,101574.84
2023-05-22T13:07:26.006Z,101574.75
2023-05-22T13:09:52.603Z,101577.88
2023-05-22T13:12:19.415Z,101580.84
2023-05-22T13:14:46.114Z,101578.41
2023-05-22T13:17:13.103Z,101580.44
2023-05-22T13:19:39.701Z,101568.81
2023-05-22T13:22:07.664Z,101592.94
2023-05-22T13:24:34.402Z,101581.09
2023-05-22T13:27:01.946Z,101588.66
2023-05-22T13:29:28.578Z,101595.63
2023-05-22T13:31:55.182Z,101590.50
2023-05-22T13:34:21.832Z,101570.19
2023-05-22T13:36:48.556Z,101588.53
2023-05-22T13:39:15.230Z,101603.47
2023-05-22T13:41:41.831Z,101593.69
2023-05-22T13:44:08.512Z,101592.66
2023-05-22T13:46:35.206Z,101590.03
2023-05-22T13:49:01.923Z,101593.94
2023-05-22T13:51:28.567Z,101585.94
2023-05-22T13:53:55.266Z,101584.44
2023-05-22T13:56:23.424Z,101603.81
2023-05-22T13:58:49.995Z,101586.31
2023-05-22T14:01:16.562Z,101596.78
2023-05-22T14:03:43.217Z,101602.69
2023-05-22T14:06:09.837Z,101592.41
2023-05-22T14:08:36.774Z,101594.47
2023-05-22T14:11:03.423Z,101598.84
2023-05-22T14:13:30.170Z,101598.72
2023-05-22T14:15:56.818Z,101605.47
2023-05-22T14:18:23.599Z,101618.84
2023-05-22T14:20:50.208Z,101597.25
2023-05-22T14:23:16.758Z,101595.53
2023-05-22T14:25:43.446Z,101603.59
2023-05-22T14:28:13.213Z,101609.44
2023-05-22T14:30:40.660Z,101610.69
2023-05-22T14:33:07.666Z,101603.63
2023-05-22T14:35:34.350Z,101609.19
2023-05-22T14:38:01.639Z,101608.38
2023-05-22T14:40:28.384Z,101615.53
2023-05-22T14:42:55.018Z,101619.00
2023-05-22T14:45:21.789Z,101616.53
2023-05-22T14:47:48.508Z,101627.69
2023-05-22T14:50:19.894Z,101624.00
2023-05-22T14:52:48.524Z,101619.09
2023-05-22T14:55:15.545Z,101616.09
2023-05-22T14:57:42.120Z,101622.13
2023-05-22T15:00:10.361Z,101619.44
2023-05-22T15:02:37.318Z,101618.72
2023-05-22T15:05:04.565Z,101625.72
2023-05-22T15:07:43.079Z,101624.34
2023-05-22T15:10:11.150Z,101607.47
2023-05-22T15:12:37.718Z,101618.91
2023-05-22T15:15:04.687Z,101627.91
2023-05-22T15:17:31.313Z,101631.56
2023-05-22T15:19:57.924Z,101633.22
2023-05-22T15:22:24.524Z,101631.56
2023-05-22T15:25:06.454Z,101632.28
2023-05-22T15:27:35.511Z,101626.09
2023-05-22T15:30:03.526Z,101630.09
2023-05-22T15:32:32.201Z,101631.53
2023-05-22T15:34:58.854Z,101631.47
2023-05-22T15:37:25.451Z,101638.97
2023-05-22T15:39:52.000Z,101645.72
2023-05-22T15:42:18.648Z,101644.09
2023-05-22T15:44:45.402Z,101653.81
2023-05-22T15:47:11.987Z,101649.50
2023-05-22T15:49:38.579Z,101665.84
2023-05-22T15:52:05.370Z,101661.09
2023-05-22T15:54:31.951Z,101666.94
2023-05-22T15:56:58.536Z,101655.84
2023-05-22T15:59:25.104Z,101672.94
2023-05-22T16:01:51.694Z,101670.25
2023-05-22T16:04:18.372Z,101667.88
2023-05-22T16:06:44.958Z,101673.03
2023-05-22T16:09:11.620Z,101679.25
2023-05-22T16:11:38.420Z,101666.59
2023-05-22T16:14:05.089Z,101671.66
2023-05-22T16:16:31.795Z,101677.22
2023-05-22T16:18:58.601Z,101674.09
2023-05-22T16:21:37.658Z,101672.47
2023-05-22T16:24:06.435Z,101682.91
2023-05-22T16:26:32.983Z,101678.06
2023-05-22T16:28:59.528Z,101683.78
2023-05-22T16:31:26.172Z,101677.78
2023-05-22T16:33:53.243Z,101685.50
2023-05-22T16:36:19.882Z,101680.13
2023-05-22T16:38:46.545Z,101687.03
2023-05-22T16:41:13.101Z,101685.84
2023-05-22T16:43:39.685Z,101682.31
2023-05-22T16:46:06.377Z,101684.16
2023-05-22T16:48:32.952Z,101683.13
2023-05-22T16:50:59.493Z,101688.28
2023-05-22T16:53:26.105Z,101690.13
2023-05-22T16:55:52.682Z,101683.41
2023-05-22T16:58:19.318Z,101681.72
2023-05-22T17:00:46.141Z,101688.66
2023-05-22T17:03:13.129Z,101673.00
2023-05-22T17:05:40.268Z,101687.03
2023-05-22T17:08:07.107Z,101694.19
2023-05-22T17:10:33.777Z,101696.91
2023-05-22T17:13:00.534Z,101700.44
2023-05-22T17:15:27.104Z,101696.94
2023-05-22T17:17:53.785Z,101703.78
2023-05-22T17:20:23.029Z,101705.63
2023-05-22T17:22:50.021Z,101697.13
2023-05-22T17:25:16.681Z,101692.78
2023-05-22T17:27:43.213Z,101697.06
2023-05-22T17:30:10.039Z,101698.19
2023-05-22T17:32:36.783Z,101702.66
2023-05-22T17:35:06.052Z,101700.13
2023-05-22T17:37:32.735Z,101693.19
2023-05-22T17:39:59.345Z,101709.09
2023-05-22T17:42:26.011Z,101704.00
2023-05-22T17:44:52.577Z,101698.72
2023-05-22T17:47:19.182Z,101678.88
2023-05-22T17:49:45.784Z,101696.28
2023-05-22T17:52:13.470Z,101706.88
2023-05-22T17:54:40.080Z,101686.06
2023-05-22T17:57:06.685Z,101702.56
2023-05-22T17:59:33.375Z,101693.16
2023-05-22T18:02:00.051Z,101699.28
2023-05-22T18:04:26.735Z,101689.84
2023-05-22T18:06:53.286Z,101715.94
2023-05-22T18:09:19.866Z,101722.09
2023-05-22T18:11:46.446Z,101719.38
2023-05-22T18:14:13.193Z,101703.06
2023-05-22T18:16:39.866Z,101721.34
2023-05-22T18:19:06.549Z,101716.03
2023-05-22T18:21:33.151Z,101719.63
2023-05-22T18:23:59.803Z,101717.03
2023-05-22T18:26:27.011Z,101721.41
2023-05-22T18:28:53.623Z,101723.09
2023-05-22T18:31:20.518Z,101730.13
2023-05-22T18:33:47.209Z,101740.63
2023-05-22T18:36:13.935Z,101735.34
2023-05-22T18:38:40.636Z,101740.56
2023-05-22T18:41:07.781Z,101734.50
2023-05-22T18:43:34.437Z,101742.28
2023-05-22T18:46:01.225Z,101736.19
2023-05-22T18:48:28.352Z,101746.63
2023-05-22T18:50:57.469Z,101747.66
2023-05-22T18:53:25.353Z,101739.94
2023-05-22T18:55:53.743Z,101734.09
2023-05-22T18:58:20.602Z,101750.59
2023-05-22T19:00:47.265Z,101759.31
2023-05-22T19:03:14.138Z,101757.66
2023-05-22T19:05:41.225Z,101747.31
2023-05-22T19:08:07.832Z,101755.13
2023-05-22T19:10:34.646Z,101749.97
2023-05-22T19:13:01.326Z,101759.56
2023-05-22T19:15:27.897Z,101766.56
2023-05-22T19:17:54.491Z,101782.19
2023-05-22T19:20:23.416Z,101790.88
2023-05-22T19:22:51.431Z,101786.59
2023-05-22T19:25:18.531Z,101787.47
2023-05-22T19:27:45.878Z,101790.97
2023-05-22T19:30:15.245Z,101789.25
2023-05-22T19:32:43.519Z,101796.22
2023-05-22T19:35:11.104Z,101807.50
2023-05-22T19:37:38.169Z,101797.97
2023-05-22T19:40:06.006Z,101796.28
2023-05-22T19:42:32.870Z,101817.94
2023-05-22T19:44:59.490Z,101794.53
2023-05-22T19:47:26.174Z,101820.53
2023-05-22T19:49:52.818Z,101817.03
2023-05-22T19:52:19.419Z,101831.75
2023-05-22T19:54:46.254Z,101832.69
2023-05-22T19:57:12.830Z,101840.50
2023-05-22T19:59:39.512Z,101850.91
2023-05-22T20:02:06.214Z,101857.91
2023-05-22T20:04:32.885Z,101857.06
2023-05-22T20:06:59.514Z,101867.47
2023-05-22T20:09:26.962Z,101865.72
2023-05-22T20:11:53.635Z,101868.28
2023-05-22T20:14:20.307Z,101885.63
2023-05-22T20:16:46.961Z,101885.63
2023-05-22T20:19:14.897Z,101875.19
2023-05-22T20:21:41.506Z,101881.25
2023-05-22T20:24:17.478Z,101890.78
2023-05-22T20:26:44.313Z,101879.47
2023-05-22T20:29:11.409Z,101892.44
2023-05-22T20:31:38.083Z,101893.28
2023-05-22T20:34:04.838Z,101898.47
2023-05-22T20:36:32.656Z,101907.13
2023-05-22T20:38:59.198Z,101900.16
2023-05-22T20:41:25.913Z,101914.91
2023-05-22T20:43:54.397Z,101908.78
2023-05-22T20:46:24.285Z,101905.31
2023-05-22T20:48:54.556Z,101904.38
2023-05-22T20:51:21.853Z,101915.66
2023-05-22T20:53:49.795Z,101919.19
2023-05-22T20:56:16.489Z,101912.19
2023-05-22T20:58:43.116Z,101940.00
2023-05-22T21:01:09.848Z,101932.22
2023-05-22T21:03:36.614Z,101928.69
2023-05-22T21:06:03.470Z,101941.75
2023-05-22T21:08:30.110Z,101945.19
2023-05-22T21:10:56.711Z,101942.59
2023-05-22T21:13:23.604Z,101945.19
2023-05-22T21:15:50.942Z,101942.59
2023-05-22T21:18:20.078Z,101929.44
2023-05-22T21:20:49.940Z,101929.41
2023-05-22T21:23:16.865Z,101943.38
2023-05-22T21:25:43.497Z,101932.09
2023-05-22T21:28:10.150Z,101932.97
2023-05-22T21:30:36.969Z,101945.19
2023-05-22T21:33:03.780Z,101953.88
2023-05-22T21:35:30.349Z,101946.94
2023-05-22T21:37:56.955Z,101949.56
2023-05-22T21:40:23.498Z,101949.50
2023-05-22T21:42:50.106Z,101931.22
2023-05-22T21:45:16.688Z,101960.75
2023-05-22T21:47:43.388Z,101944.22
2023-05-22T21:50:10.622Z,101954.63
2023-05-22T21:52:37.206Z,101960.69
2023-05-22T21:55:04.160Z,101956.31
2023-05-22T21:57:30.805Z,101945.03
2023-05-22T21:59:57.591Z,101955.47
2023-05-22T22:02:24.610Z,101965.00
2023-05-22T22:04:51.488Z,101969.34
2023-05-22T22:07:18.021Z,101956.34
2023-05-22T22:09:44.626Z,101949.34
2023-05-22T22:12:11.676Z,101951.13
2023-05-22T22:14:38.240Z,101958.06
2023-05-22T22:17:05.976Z,101967.50
2023-05-22T22:19:34.364Z,101962.25
2023-05-22T22:22:01.360Z,101957.94
2023-05-22T22:24:28.136Z,101946.72
2023-05-22T22:26:55.020Z,101944.09
2023-05-22T22:29:21.561Z,101964.91
2023-05-22T22:31:48.309Z,101937.16
2023-05-22T22:34:14.970Z,101961.38
2023-05-22T22:36:41.990Z,101963.94
2023-05-22T22:39:08.656Z,101965.69
2023-05-22T22:41:35.333Z,101950.94
2023-05-22T22:44:01.931Z,101950.91
2023-05-22T22:46:28.557Z,101969.06
2023-05-22T22:48:55.657Z,101960.34
2023-05-22T22:51:22.288Z,101965.50
2023-05-22T22:53:48.848Z,101946.41
2023-05-22T22:56:15.824Z,101956.00
2023-05-22T22:58:42.461Z,101959.34
2023-05-22T23:01:09.105Z,101967.16
2023-05-22T23:03:36.131Z,101962.84
2023-05-22T23:06:02.804Z,101957.56
2023-05-22T23:08:29.377Z,101967.94
2023-05-22T23:10:56.120Z,101979.19
2023-05-22T23:13:23.072Z,101963.53
2023-05-22T23:15:49.975Z,101965.28
2023-05-22T23:18:16.779Z,101960.97
2023-05-22T23:20:43.590Z,101979.16
2023-05-22T23:23:10.811Z,101984.31
2023-05-22T23:25:37.747Z,101984.31
2023-05-22T23:28:06.142Z,101984.25
2023-05-22T23:30:32.858Z,101952.94
2023-05-22T23:32:59.482Z,101985.97
2023-05-22T23:35:26.643Z,101992.03
2023-05-22T23:37:53.252Z,101965.91
2023-05-22T23:40:26.867Z,101976.22
2023-05-22T23:42:53.593Z,101972.75
2023-05-22T23:45:22.866Z,101986.59
2023-05-22T23:47:55.345Z,101997.81
2023-05-22T23:50:26.385Z,102006.44
2023-05-22T23:52:53.464Z,102006.38
2023-05-22T23:55:23.800Z,101994.19
2023-05-22T23:57:52.653Z,102004.69
